createdAt,value
2019-04-01T00:00:53.945Z,2.80
2019-04-01T00:01:53.941Z,2.50
2019-04-01T00:02:53.887Z,2.20
2019-04-01T00:03:53.897Z,2.20
2019-04-01T00:04:53.867Z,2.50
2019-04-01T00:05:53.863Z,2.40
2019-04-01T00:06:53.882Z,2.30
2019-04-01T00:07:53.836Z,2.00
2019-04-01T00:08:53.844Z,2.50
2019-04-01T00:09:53.826Z,2.70
2019-04-01T00:10:53.801Z,2.80
2019-04-01T00:11:53.811Z,2.60
2019-04-01T00:12:53.786Z,2.30
2019-04-01T00:13:53.778Z,2.70
2019-04-01T00:14:53.773Z,2.70
2019-04-01T00:15:53.743Z,2.30
2019-04-01T00:16:53.783Z,2.60
2019-04-01T00:17:53.727Z,2.40
2019-04-01T00:19:02.831Z,2.30
2019-04-01T00:19:54.703Z,2.40
2019-04-01T00:20:53.695Z,2.30
2019-04-01T00:21:53.701Z,2.40
2019-04-01T00:22:53.781Z,2.30
2019-04-01T00:23:53.666Z,2.70
2019-04-01T00:24:53.667Z,2.10
2019-04-01T00:25:53.636Z,2.40
2019-04-01T00:26:53.660Z,2.30
2019-04-01T00:27:53.635Z,2.50
2019-04-01T00:28:53.618Z,2.70
2019-04-01T00:29:53.594Z,2.60
2019-04-01T00:30:53.582Z,2.50
2019-04-01T00:31:53.586Z,2.60
2019-04-01T00:32:53.567Z,2.40
2019-04-01T00:33:53.560Z,2.30
2019-04-01T00:34:53.543Z,2.10
2019-04-01T00:35:53.531Z,2.30
2019-04-01T00:36:53.548Z,2.70
2019-04-01T00:37:53.504Z,2.60
2019-04-01T00:38:53.495Z,2.30
2019-04-01T00:39:53.664Z,3.00
2019-04-01T00:40:53.497Z,2.60
2019-04-01T00:41:53.462Z,2.70
2019-04-01T00:42:53.480Z,2.30
2019-04-01T00:43:53.443Z,2.50
2019-04-01T00:44:53.445Z,2.20
2019-04-01T00:45:53.513Z,2.40
2019-04-01T00:46:53.411Z,2.10
2019-04-01T00:47:53.419Z,2.20
2019-04-01T00:48:53.416Z,2.30
2019-04-01T00:49:53.389Z,2.40
2019-04-01T00:50:53.370Z,2.10
2019-04-01T00:51:53.373Z,2.50
2019-04-01T00:52:53.419Z,2.90
2019-04-01T00:53:53.332Z,2.40
2019-04-01T00:54:53.324Z,2.70
2019-04-01T00:55:53.309Z,2.60
2019-04-01T00:56:53.306Z,2.10
2019-04-01T00:57:53.315Z,2.40
2019-04-01T00:58:53.274Z,2.20
2019-04-01T00:59:53.285Z,2.00
2019-04-01T01:00:53.258Z,2.30
2019-04-01T01:01:53.251Z,2.50
2019-04-01T01:02:53.239Z,2.40
2019-04-01T01:03:53.248Z,2.60
2019-04-01T01:04:53.214Z,2.50
2019-04-01T01:05:53.245Z,2.60
2019-04-01T01:06:53.211Z,2.00
2019-04-01T01:07:53.181Z,2.40
2019-04-01T01:08:53.186Z,2.50
2019-04-01T01:09:53.172Z,2.30
2019-04-01T01:10:53.146Z,2.40
2019-04-01T01:11:53.152Z,3.00
2019-04-01T01:12:53.114Z,2.30
2019-04-01T01:13:53.128Z,2.30
2019-04-01T01:14:53.120Z,2.20
2019-04-01T01:15:53.094Z,2.20
2019-04-01T01:16:53.080Z,2.40
2019-04-01T01:17:53.082Z,2.50
2019-04-01T01:18:53.115Z,2.60
2019-04-01T01:19:53.054Z,2.30
2019-04-01T01:20:53.027Z,2.20
2019-04-01T01:21:53.018Z,2.10
2019-04-01T01:22:53.006Z,2.30
2019-04-01T01:23:53.026Z,2.30
2019-04-01T01:24:52.988Z,2.30
2019-04-01T01:25:52.972Z,2.20
2019-04-01T01:26:52.970Z,2.60
2019-04-01T01:27:52.986Z,2.50
2019-04-01T01:28:52.982Z,2.20
2019-04-01T01:29:52.928Z,2.60
2019-04-01T01:30:52.929Z,2.50
2019-04-01T01:31:52.908Z,2.50
2019-04-01T01:32:52.899Z,2.60
2019-04-01T01:33:52.915Z,2.60
2019-04-01T01:34:52.901Z,2.30
2019-04-01T01:35:52.868Z,2.80
2019-04-01T01:36:52.866Z,2.40
2019-04-01T01:37:52.840Z,2.40
2019-04-01T01:38:52.834Z,2.70
2019-04-01T01:39:53.104Z,2.50
2019-04-01T01:40:52.807Z,2.50
2019-04-01T01:41:52.799Z,2.20
2019-04-01T01:42:52.809Z,2.30
2019-04-01T01:43:52.774Z,2.20
2019-04-01T01:44:52.782Z,2.40
2019-04-01T01:45:52.782Z,2.40
2019-04-01T01:46:52.740Z,2.30
2019-04-01T01:47:52.737Z,2.40
2019-04-01T01:48:52.718Z,2.60
2019-04-01T01:49:52.733Z,2.20
2019-04-01T01:50:52.698Z,2.40
2019-04-01T01:51:52.715Z,2.40
2019-04-01T01:52:52.672Z,2.30
2019-04-01T01:53:52.688Z,2.50
2019-04-01T01:54:52.696Z,2.30
2019-04-01T01:55:52.647Z,2.10
2019-04-01T01:56:52.632Z,2.40
2019-04-01T01:57:52.642Z,2.50
2019-04-01T01:58:52.615Z,2.20
2019-04-01T01:59:52.623Z,2.20
2019-04-01T02:00:52.584Z,2.20
2019-04-01T02:01:52.586Z,3.10
2019-04-01T02:02:52.561Z,3.00
2019-04-01T02:03:52.572Z,2.80
2019-04-01T02:04:52.558Z,2.60
2019-04-01T02:05:52.530Z,2.60
2019-04-01T02:06:52.521Z,2.90
2019-04-01T02:07:52.543Z,2.60
2019-04-01T02:08:52.501Z,3.00
2019-04-01T02:09:52.699Z,2.90
2019-04-01T02:10:52.532Z,2.80
2019-04-01T02:11:52.471Z,3.00
2019-04-01T02:12:52.487Z,2.60
2019-04-01T02:13:52.447Z,2.80
2019-04-01T02:14:52.479Z,2.60
2019-04-01T02:15:52.431Z,2.70
2019-04-01T02:16:52.454Z,5.00
2019-04-01T02:17:52.408Z,7.90
2019-04-01T02:18:52.383Z,7.20
2019-04-01T02:19:52.391Z,9.80
2019-04-01T02:20:52.379Z,19.30
2019-04-01T02:21:52.394Z,6.60
2019-04-01T02:22:52.343Z,3.90
2019-04-01T02:23:52.323Z,3.60
2019-04-01T02:24:52.348Z,4.10
2019-04-01T02:25:52.325Z,3.30
2019-04-01T02:26:52.300Z,3.10
2019-04-01T02:27:52.301Z,2.60
2019-04-01T02:28:52.275Z,3.10
2019-04-01T02:29:52.291Z,3.20
2019-04-01T02:30:52.256Z,3.20
2019-04-01T02:31:52.258Z,3.10
2019-04-01T02:32:52.227Z,2.60
2019-04-01T02:33:52.253Z,2.80
2019-04-01T02:34:52.223Z,2.90
2019-04-01T02:35:52.188Z,3.20
2019-04-01T02:36:52.185Z,2.70
2019-04-01T02:37:52.174Z,3.00
2019-04-01T02:38:52.169Z,3.10
2019-04-01T02:39:52.201Z,3.80
2019-04-01T02:40:52.136Z,3.50
2019-04-01T02:41:52.123Z,3.40
2019-04-01T02:42:52.117Z,3.40
2019-04-01T02:43:52.119Z,3.10
2019-04-01T02:44:52.096Z,3.40
2019-04-01T02:45:52.124Z,3.00
2019-04-01T02:46:52.077Z,3.20
2019-04-01T02:47:52.068Z,2.90
2019-04-01T02:48:52.053Z,3.50
2019-04-01T02:49:52.045Z,3.20
2019-04-01T02:50:52.053Z,3.60
2019-04-01T02:51:52.018Z,3.40
2019-04-01T02:52:52.009Z,2.90
2019-04-01T02:53:52.007Z,3.50
2019-04-01T02:54:52.084Z,3.30
2019-04-01T02:55:51.991Z,3.10
2019-04-01T02:56:51.960Z,3.30
2019-04-01T02:57:51.955Z,3.60
2019-04-01T02:58:51.934Z,3.40
2019-04-01T02:59:51.937Z,3.50
2019-04-01T03:00:51.947Z,3.50
2019-04-01T03:01:51.949Z,3.40
2019-04-01T03:02:51.893Z,3.00
2019-04-01T03:03:51.885Z,3.40
2019-04-01T03:04:51.879Z,3.30
2019-04-01T03:05:51.882Z,3.30
2019-04-01T03:06:51.857Z,3.40
2019-04-01T03:07:51.839Z,3.00
2019-04-01T03:08:51.829Z,3.80
2019-04-01T03:09:51.830Z,3.70
2019-04-01T03:10:51.838Z,3.50
2019-04-01T03:11:51.792Z,3.60
2019-04-01T03:12:51.803Z,3.40
2019-04-01T03:13:51.767Z,3.40
2019-04-01T03:14:51.776Z,3.50
2019-04-01T03:15:51.773Z,3.10
2019-04-01T03:16:51.742Z,3.20
2019-04-01T03:17:51.740Z,3.20
2019-04-01T03:18:51.755Z,3.60
2019-04-01T03:19:51.699Z,3.50
2019-04-01T03:20:51.709Z,3.10
2019-04-01T03:21:51.713Z,3.60
2019-04-01T03:22:51.673Z,3.70
2019-04-01T03:23:51.684Z,3.30
2019-04-01T03:24:51.648Z,3.50
2019-04-01T03:25:51.681Z,3.70
2019-04-01T03:26:51.638Z,3.30
2019-04-01T03:27:51.625Z,3.70
2019-04-01T03:28:51.612Z,3.70
2019-04-01T03:29:51.598Z,3.80
2019-04-01T03:30:51.598Z,3.50
2019-04-01T03:31:51.593Z,3.30
2019-04-01T03:32:51.563Z,3.80
2019-04-01T03:33:51.555Z,3.60
2019-04-01T03:34:51.539Z,4.00
2019-04-01T03:35:51.516Z,3.60
2019-04-01T03:36:51.558Z,3.90
2019-04-01T03:37:51.507Z,3.90
2019-04-01T03:38:51.495Z,3.40
2019-04-01T03:39:51.486Z,3.70
2019-04-01T03:40:51.490Z,3.30
2019-04-01T03:41:51.497Z,3.50
2019-04-01T03:42:51.450Z,3.70
2019-04-01T03:43:51.438Z,3.70
2019-04-01T03:44:55.148Z,3.40
2019-04-01T03:45:51.421Z,3.90
2019-04-01T03:46:51.577Z,4.00
2019-04-01T03:47:51.397Z,3.80
2019-04-01T03:48:51.376Z,3.80
2019-04-01T03:49:51.372Z,3.80
2019-04-01T03:50:51.381Z,3.70
2019-04-01T03:51:51.367Z,3.50
2019-04-01T03:52:51.331Z,3.00
2019-04-01T03:53:51.336Z,3.20
2019-04-01T03:54:51.313Z,3.50
2019-04-01T03:55:51.306Z,3.30
2019-04-01T03:56:51.320Z,3.40
2019-04-01T03:57:51.292Z,3.40
2019-04-01T03:58:51.269Z,3.30
2019-04-01T03:59:51.266Z,3.70
2019-04-01T04:00:51.262Z,3.70
2019-04-01T04:01:51.264Z,3.50
2019-04-01T04:02:51.227Z,3.80
2019-04-01T04:03:51.218Z,3.90
2019-04-01T04:04:51.199Z,4.00
2019-04-01T04:05:51.186Z,3.40
2019-04-01T04:06:51.225Z,3.80
2019-04-01T04:07:51.182Z,3.40
2019-04-01T04:08:51.165Z,3.50
2019-04-01T04:09:51.147Z,3.70
2019-04-01T04:10:51.141Z,3.60
2019-04-01T04:11:51.149Z,3.30
2019-04-01T04:12:51.161Z,3.50
2019-04-01T04:13:51.100Z,3.70
2019-04-01T04:14:51.751Z,3.40
2019-04-01T04:15:51.106Z,3.70
2019-04-01T04:16:51.123Z,3.20
2019-04-01T04:17:51.062Z,3.80
2019-04-01T04:18:51.050Z,3.60
2019-04-01T04:19:51.050Z,4.30
2019-04-01T04:20:51.033Z,3.70
2019-04-01T04:21:51.053Z,3.80
2019-04-01T04:22:51.009Z,4.10
2019-04-01T04:23:50.997Z,4.00
2019-04-01T04:24:50.980Z,4.00
2019-04-01T04:25:50.973Z,4.20
2019-04-01T04:26:50.974Z,4.00
2019-04-01T04:27:51.024Z,4.50
2019-04-01T04:28:50.942Z,4.90
2019-04-01T04:29:50.927Z,5.00
2019-04-01T04:30:50.917Z,5.10
2019-04-01T04:31:50.919Z,7.10
2019-04-01T04:32:50.940Z,7.70
2019-04-01T04:33:50.884Z,4.70
2019-04-01T04:34:50.863Z,4.60
2019-04-01T04:35:50.886Z,4.00
2019-04-01T04:36:50.848Z,4.10
2019-04-01T04:37:50.851Z,3.90
2019-04-01T04:38:50.824Z,3.90
2019-04-01T04:39:50.916Z,4.20
2019-04-01T04:40:50.804Z,4.40
2019-04-01T04:41:50.788Z,4.10
2019-04-01T04:42:50.803Z,4.40
2019-04-01T04:43:50.772Z,4.20
2019-04-01T04:44:50.752Z,4.10
2019-04-01T04:45:50.748Z,4.40
2019-04-01T04:46:50.743Z,4.50
2019-04-01T04:47:50.764Z,4.40
2019-04-01T04:48:50.718Z,4.00
2019-04-01T04:49:50.703Z,4.10
2019-04-01T04:50:50.689Z,4.00
2019-04-01T04:51:50.675Z,4.00
2019-04-01T04:52:50.714Z,3.80
2019-04-01T04:53:50.657Z,4.20
2019-04-01T04:54:50.645Z,4.50
2019-04-01T04:55:50.638Z,4.40
2019-04-01T04:56:50.639Z,4.60
2019-04-01T04:57:50.636Z,5.00
2019-04-01T04:58:50.595Z,4.70
2019-04-01T04:59:50.599Z,4.10
2019-04-01T05:00:50.571Z,5.30
2019-04-01T05:01:50.579Z,4.80
2019-04-01T05:02:50.578Z,4.80
2019-04-01T05:03:50.543Z,5.70
2019-04-01T05:04:50.531Z,4.70
2019-04-01T05:05:50.538Z,4.80
2019-04-01T05:06:50.508Z,4.60
2019-04-01T05:07:50.508Z,4.90
2019-04-01T05:08:50.483Z,5.00
2019-04-01T05:09:50.477Z,5.40
2019-04-01T05:10:50.493Z,5.10
2019-04-01T05:11:50.443Z,5.20
2019-04-01T05:12:50.461Z,5.20
2019-04-01T05:13:50.534Z,5.70
2019-04-01T05:14:50.422Z,5.10
2019-04-01T05:15:50.427Z,5.00
2019-04-01T05:16:50.396Z,5.10
2019-04-01T05:17:50.418Z,5.10
2019-04-01T05:18:50.375Z,5.50
2019-04-01T05:19:50.402Z,5.70
2019-04-01T05:20:50.360Z,5.00
2019-04-01T05:21:50.339Z,5.30
2019-04-01T05:22:50.356Z,5.20
2019-04-01T05:23:50.326Z,5.10
2019-04-01T05:24:50.886Z,4.80
2019-04-01T05:25:50.296Z,4.90
2019-04-01T05:26:50.294Z,5.40
2019-04-01T05:27:50.293Z,4.90
2019-04-01T05:28:50.272Z,4.90
2019-04-01T05:29:50.250Z,5.10
2019-04-01T05:30:50.236Z,5.00
2019-04-01T05:31:50.239Z,4.70
2019-04-01T05:32:50.265Z,4.50
2019-04-01T05:33:55.532Z,5.30
2019-04-01T05:34:51.192Z,5.30
2019-04-01T05:35:50.194Z,5.80
2019-04-01T05:36:50.175Z,5.10
2019-04-01T05:37:50.171Z,5.40
2019-04-01T05:38:50.228Z,5.10
2019-04-01T05:39:50.152Z,4.90
2019-04-01T05:40:50.255Z,4.80
2019-04-01T05:41:50.234Z,4.80
2019-04-01T05:42:50.102Z,5.20
2019-04-01T05:43:50.160Z,4.80
2019-04-01T05:44:50.128Z,5.60
2019-04-01T05:45:50.105Z,4.80
2019-04-01T05:46:50.124Z,5.40
2019-04-01T05:47:50.056Z,4.90
2019-04-01T05:48:50.068Z,5.10
2019-04-01T05:49:50.034Z,5.20
2019-04-01T05:50:50.020Z,5.50
2019-04-01T05:51:50.009Z,4.90
2019-04-01T05:52:50.008Z,4.80
2019-04-01T05:53:50.040Z,4.80
2019-04-01T05:54:49.968Z,4.60
2019-04-01T05:55:49.962Z,4.40
2019-04-01T05:56:49.984Z,5.00
2019-04-01T05:57:49.971Z,6.10
2019-04-01T05:58:50.017Z,4.90
2019-04-01T05:59:49.934Z,4.70
2019-04-01T06:00:49.902Z,5.10
2019-04-01T06:01:49.903Z,4.90
2019-04-01T06:02:49.925Z,4.30
2019-04-01T06:03:49.891Z,4.60
2019-04-01T06:04:49.866Z,4.10
2019-04-01T06:05:49.848Z,3.80
2019-04-01T06:06:49.852Z,3.90
2019-04-01T06:07:49.847Z,4.20
2019-04-01T06:08:49.849Z,3.90
2019-04-01T06:09:49.803Z,4.00
2019-04-01T06:10:49.793Z,4.30
2019-04-01T06:11:49.781Z,4.10
2019-04-01T06:12:49.782Z,3.90
2019-04-01T06:13:49.788Z,4.00
2019-04-01T06:14:49.796Z,4.10
2019-04-01T06:15:49.748Z,3.60
2019-04-01T06:16:49.726Z,3.60
2019-04-01T06:17:49.725Z,4.00
2019-04-01T06:18:49.722Z,4.20
2019-04-01T06:19:49.691Z,3.60
2019-04-01T06:20:49.696Z,4.00
2019-04-01T06:21:49.670Z,3.70
2019-04-01T06:22:49.761Z,4.00
2019-04-01T06:23:49.699Z,3.60
2019-04-01T06:24:49.640Z,4.00
2019-04-01T06:25:49.632Z,3.60
2019-04-01T06:26:49.621Z,3.60
2019-04-01T06:27:49.602Z,3.50
2019-04-01T06:28:49.611Z,3.60
2019-04-01T06:29:49.607Z,3.50
2019-04-01T06:30:49.571Z,3.50
2019-04-01T06:31:49.555Z,3.60
2019-04-01T06:32:49.542Z,3.60
2019-04-01T06:33:49.542Z,3.70
2019-04-01T06:34:52.986Z,3.80
2019-04-01T06:35:49.524Z,3.50
2019-04-01T06:36:49.503Z,3.80
2019-04-01T06:37:49.486Z,3.70
2019-04-01T06:38:49.492Z,3.70
2019-04-01T06:39:49.493Z,3.50
2019-04-01T06:40:49.501Z,3.60
2019-04-01T06:41:49.466Z,3.60
2019-04-01T06:42:49.442Z,3.80
2019-04-01T06:43:49.434Z,4.20
2019-04-01T06:44:49.433Z,3.70
2019-04-01T06:45:49.415Z,4.00
2019-04-01T06:46:49.426Z,3.50
2019-04-01T06:47:49.385Z,3.30
2019-04-01T06:48:49.366Z,3.60
2019-04-01T06:49:49.377Z,3.40
2019-04-01T06:50:49.385Z,3.40
2019-04-01T06:51:49.352Z,3.20
2019-04-01T06:52:49.335Z,3.40
2019-04-01T06:53:49.342Z,3.20
2019-04-01T06:54:49.329Z,3.00
2019-04-01T06:55:49.294Z,3.30
2019-04-01T06:56:49.291Z,3.40
2019-04-01T06:57:49.279Z,2.90
2019-04-01T06:58:49.268Z,3.40
2019-04-01T06:59:49.285Z,3.40
2019-04-01T07:00:49.281Z,3.90
2019-04-01T07:01:49.225Z,4.10
2019-04-01T07:02:49.216Z,3.10
2019-04-01T07:03:49.212Z,3.10
2019-04-01T07:04:49.260Z,2.80
2019-04-01T07:05:49.196Z,3.00
2019-04-01T07:06:49.177Z,2.80
2019-04-01T07:07:49.170Z,2.90
2019-04-01T07:08:49.167Z,2.70
2019-04-01T07:09:50.845Z,2.50
2019-04-01T07:10:49.152Z,2.90
2019-04-01T07:11:49.126Z,3.00
2019-04-01T07:12:49.132Z,2.90
2019-04-01T07:13:49.097Z,2.80
2019-04-01T07:14:49.171Z,3.00
2019-04-01T07:15:49.097Z,2.50
2019-04-01T07:16:49.105Z,2.50
2019-04-01T07:17:49.054Z,2.70
2019-04-01T07:18:49.063Z,3.00
2019-04-01T07:19:49.030Z,3.20
2019-04-01T07:20:49.075Z,2.90
2019-04-01T07:21:49.047Z,2.90
2019-04-01T07:22:49.001Z,2.80
2019-04-01T07:23:48.994Z,2.90
2019-04-01T07:24:49.008Z,2.40
2019-04-01T07:25:48.988Z,2.70
2019-04-01T07:26:48.970Z,2.60
2019-04-01T07:27:48.948Z,2.50
2019-04-01T07:28:48.933Z,2.60
2019-04-01T07:29:48.923Z,2.60
2019-04-01T07:30:48.934Z,2.60
2019-04-01T07:31:48.900Z,2.40
2019-04-01T07:32:48.909Z,2.30
2019-04-01T07:33:48.882Z,2.60
2019-04-01T07:34:48.870Z,2.40
2019-04-01T07:35:48.879Z,2.70
2019-04-01T07:36:48.844Z,2.60
2019-04-01T07:37:48.841Z,2.40
2019-04-01T07:38:48.841Z,2.90
2019-04-01T07:39:48.819Z,2.60
2019-04-01T07:40:48.870Z,2.80
2019-04-01T07:41:48.798Z,2.70
2019-04-01T07:42:48.779Z,2.60
2019-04-01T07:43:48.778Z,2.90
2019-04-01T07:44:48.784Z,2.90
2019-04-01T07:45:48.784Z,2.60
2019-04-01T07:46:48.737Z,2.30
2019-04-01T07:47:51.521Z,2.70
2019-04-01T07:48:48.717Z,2.70
2019-04-01T07:49:48.799Z,2.40
2019-04-01T07:50:48.732Z,2.40
2019-04-01T07:51:48.686Z,2.00
2019-04-01T07:52:48.672Z,2.80
2019-04-01T07:53:48.661Z,2.50
2019-04-01T07:54:48.651Z,2.60
2019-04-01T07:55:48.650Z,3.20
2019-04-01T07:56:48.641Z,3.10
2019-04-01T07:57:48.617Z,2.30
2019-04-01T07:58:48.600Z,2.70
2019-04-01T07:59:48.585Z,2.90
2019-04-01T08:00:48.600Z,2.20
2019-04-01T08:01:48.600Z,2.20
2019-04-01T08:02:49.115Z,2.30
2019-04-01T08:03:48.544Z,1.80
2019-04-01T08:04:48.534Z,2.00
2019-04-01T08:05:48.536Z,2.50
2019-04-01T08:06:48.537Z,2.50
2019-04-01T08:07:48.496Z,2.50
2019-04-01T08:08:48.493Z,2.50
2019-04-01T08:09:48.475Z,2.30
2019-04-01T08:10:48.469Z,2.40
2019-04-01T08:11:50.244Z,2.30
2019-04-01T08:12:48.464Z,2.40
2019-04-01T08:13:48.431Z,2.50
2019-04-01T08:14:48.438Z,2.40
2019-04-01T08:15:48.418Z,2.30
2019-04-01T08:16:48.421Z,2.50
2019-04-01T08:17:48.396Z,2.20
2019-04-01T08:18:48.376Z,2.10
2019-04-01T08:19:48.619Z,2.40
2019-04-01T08:20:48.350Z,2.30
2019-04-01T08:21:48.358Z,2.20
2019-04-01T08:22:48.333Z,2.60
2019-04-01T08:23:48.336Z,2.50
2019-04-01T08:24:48.313Z,2.20
2019-04-01T08:25:48.296Z,2.30
2019-04-01T08:26:48.309Z,2.10
2019-04-01T08:27:48.272Z,2.20
2019-04-01T08:28:48.273Z,2.10
2019-04-01T08:29:48.247Z,2.10
2019-04-01T08:30:48.349Z,2.30
2019-04-01T08:31:48.440Z,2.20
2019-04-01T08:32:48.354Z,2.30
2019-04-01T08:33:50.227Z,2.70
2019-04-01T08:34:48.244Z,2.50
2019-04-01T08:35:48.186Z,2.40
2019-04-01T08:36:48.257Z,2.20
2019-04-01T08:37:55.328Z,2.10
2019-04-01T08:38:48.203Z,2.50
2019-04-01T08:39:48.261Z,2.50
2019-04-01T08:40:48.189Z,2.50
2019-04-01T08:41:48.166Z,1.70
2019-04-01T08:42:49.129Z,1.70
2019-04-01T08:43:48.106Z,1.90
2019-04-01T08:44:48.665Z,2.00
2019-04-01T08:45:48.090Z,1.90
2019-04-01T08:46:48.092Z,1.90
2019-04-01T08:47:48.058Z,2.00
2019-04-01T08:48:48.053Z,2.00
2019-04-01T08:49:48.040Z,2.10
2019-04-01T08:50:48.022Z,1.80
2019-04-01T08:51:48.044Z,1.80
2019-04-01T08:52:47.990Z,1.80
2019-04-01T08:53:47.979Z,2.40
2019-04-01T08:54:47.981Z,2.50
2019-04-01T08:55:48.672Z,3.80
2019-04-01T08:56:47.979Z,2.20
2019-04-01T08:57:47.934Z,2.10
2019-04-01T08:58:47.927Z,1.80
2019-04-01T08:59:47.913Z,1.80
2019-04-01T09:00:47.918Z,1.60
2019-04-01T09:01:47.933Z,1.50
2019-04-01T09:02:47.910Z,1.70
2019-04-01T09:03:47.875Z,1.60
2019-04-01T09:04:47.862Z,1.50
2019-04-01T09:05:47.885Z,1.50
2019-04-01T09:06:47.874Z,1.80
2019-04-01T09:07:47.846Z,1.50
2019-04-01T09:08:47.822Z,1.60
2019-04-01T09:09:47.809Z,1.70
2019-04-01T09:10:47.803Z,1.30
2019-04-01T09:11:47.797Z,1.70
2019-04-01T09:12:47.807Z,1.70
2019-04-01T09:13:47.789Z,1.60
2019-04-01T09:14:47.747Z,1.90
2019-04-01T09:15:47.737Z,1.70
2019-04-01T09:16:47.755Z,1.30
2019-04-01T09:17:47.737Z,1.60
2019-04-01T09:18:47.713Z,2.00
2019-04-01T09:19:47.779Z,1.40
2019-04-01T09:20:47.686Z,1.70
2019-04-01T09:21:47.675Z,1.70
2019-04-01T09:22:47.675Z,1.70
2019-04-01T09:23:47.649Z,1.60
2019-04-01T09:24:47.653Z,2.00
2019-04-01T09:25:47.619Z,2.10
2019-04-01T09:26:47.619Z,1.80
2019-04-01T09:27:47.620Z,1.70
2019-04-01T09:28:47.589Z,1.80
2019-04-01T09:29:47.581Z,1.60
2019-04-01T09:30:47.576Z,2.30
2019-04-01T09:31:47.576Z,2.50
2019-04-01T09:32:47.577Z,2.50
2019-04-01T09:33:47.533Z,2.10
2019-04-01T09:34:47.529Z,1.80
2019-04-01T09:35:47.528Z,1.80
2019-04-01T09:36:47.508Z,1.60
2019-04-01T09:37:47.515Z,1.80
2019-04-01T09:38:47.482Z,2.10
2019-04-01T09:39:47.480Z,2.00
2019-04-01T09:40:47.469Z,1.80
2019-04-01T09:41:47.453Z,1.90
2019-04-01T09:42:47.454Z,2.30
2019-04-01T09:43:47.498Z,2.40
2019-04-01T09:44:47.412Z,2.00
2019-04-01T09:45:47.406Z,1.90
2019-04-01T09:46:49.080Z,2.10
2019-04-01T09:47:47.396Z,2.30
2019-04-01T09:48:47.373Z,2.10
2019-04-01T09:49:47.401Z,2.20
2019-04-01T09:50:47.353Z,2.90
2019-04-01T09:51:48.928Z,2.90
2019-04-01T09:52:47.356Z,2.50
2019-04-01T09:53:47.325Z,2.60
2019-04-01T09:54:47.304Z,2.30
2019-04-01T09:55:47.312Z,2.30
2019-04-01T09:56:47.283Z,2.10
2019-04-01T09:57:47.345Z,1.90
2019-04-01T09:58:47.268Z,2.00
2019-04-01T09:59:47.269Z,1.90
2019-04-01T10:00:47.233Z,2.20
2019-04-01T10:01:47.227Z,2.00
2019-04-01T10:02:47.227Z,2.10
2019-04-01T10:03:47.198Z,2.00
2019-04-01T10:04:47.202Z,2.10
2019-04-01T10:05:47.186Z,2.80
2019-04-01T10:06:47.172Z,3.00
2019-04-01T10:07:47.391Z,2.50
2019-04-01T10:08:47.146Z,2.50
2019-04-01T10:09:47.154Z,2.00
2019-04-01T10:10:47.129Z,2.30
2019-04-01T10:11:47.125Z,2.20
2019-04-01T10:12:47.130Z,2.30
2019-04-01T10:13:47.101Z,2.70
2019-04-01T10:14:47.076Z,2.50
2019-04-01T10:15:47.076Z,2.30
2019-04-01T10:16:47.071Z,2.20
2019-04-01T10:17:47.058Z,2.20
2019-04-01T10:18:47.048Z,2.20
2019-04-01T10:19:47.260Z,2.30
2019-04-01T10:20:47.021Z,2.50
2019-04-01T10:21:47.031Z,2.40
2019-04-01T10:22:47.024Z,2.80
2019-04-01T10:23:46.988Z,2.60
2019-04-01T10:24:47.003Z,2.40
2019-04-01T10:25:47.032Z,2.40
2019-04-01T10:26:46.957Z,2.10
2019-04-01T10:27:46.994Z,2.60
2019-04-01T10:28:46.924Z,2.30
2019-04-01T10:29:46.912Z,2.00
2019-04-01T10:30:46.916Z,2.10
2019-04-01T10:31:46.910Z,2.10
2019-04-01T10:32:46.921Z,2.80
2019-04-01T10:33:46.866Z,3.00
2019-04-01T10:34:46.863Z,2.70
2019-04-01T10:35:46.850Z,3.10
2019-04-01T10:36:46.854Z,3.10
2019-04-01T10:37:46.851Z,2.70
2019-04-01T10:38:47.152Z,2.70
2019-04-01T10:39:46.807Z,3.30
2019-04-01T10:40:46.797Z,2.50
2019-04-01T10:41:46.788Z,2.80
2019-04-01T10:42:46.786Z,2.40
2019-04-01T10:43:46.806Z,2.10
2019-04-01T10:44:46.781Z,2.20
2019-04-01T10:45:46.751Z,2.20
2019-04-01T10:46:46.746Z,2.10
2019-04-01T10:47:46.794Z,2.00
2019-04-01T10:48:46.773Z,2.20
2019-04-01T10:49:46.783Z,2.40
2019-04-01T10:50:46.756Z,2.40
2019-04-01T10:51:46.689Z,2.00
2019-04-01T10:52:46.701Z,2.10
2019-04-01T10:53:46.702Z,2.40
2019-04-01T10:54:46.672Z,2.40
2019-04-01T10:55:46.777Z,2.50
2019-04-01T10:56:46.676Z,2.40
2019-04-01T10:57:46.652Z,2.30
2019-04-01T10:58:46.699Z,2.30
2019-04-01T10:59:46.626Z,2.70
2019-04-01T11:00:46.640Z,2.40
2019-04-01T11:01:46.588Z,2.70
2019-04-01T11:02:49.822Z,2.50
2019-04-01T11:03:46.602Z,2.50
2019-04-01T11:04:46.600Z,2.20
2019-04-01T11:05:46.552Z,2.30
2019-04-01T11:06:46.607Z,2.60
2019-04-01T11:07:46.602Z,2.50
2019-04-01T11:08:46.550Z,2.40
2019-04-01T11:09:46.537Z,2.40
2019-04-01T11:10:46.506Z,3.00
2019-04-01T11:11:46.508Z,2.70
2019-04-01T11:12:46.496Z,2.70
2019-04-01T11:13:46.530Z,2.50
2019-04-01T11:14:46.470Z,2.50
2019-04-01T11:15:46.472Z,2.50
2019-04-01T11:16:46.591Z,2.40
2019-04-01T11:17:46.431Z,2.80
2019-04-01T11:18:46.445Z,2.40
2019-04-01T11:19:46.423Z,2.50
2019-04-01T11:20:46.405Z,2.50
2019-04-01T11:21:46.415Z,2.60
2019-04-01T11:22:46.388Z,2.10
2019-04-01T11:23:46.455Z,2.40
2019-04-01T11:24:46.370Z,2.60
2019-04-01T11:25:46.359Z,2.70
2019-04-01T11:26:46.348Z,2.90
2019-04-01T11:27:46.342Z,2.90
2019-04-01T11:28:46.367Z,2.30
2019-04-01T11:29:46.325Z,2.50
2019-04-01T11:30:46.385Z,2.60
2019-04-01T11:31:46.344Z,3.20
2019-04-01T11:32:46.364Z,3.00
2019-04-01T11:33:46.315Z,3.00
2019-04-01T11:34:46.308Z,2.50
2019-04-01T11:35:46.280Z,2.80
2019-04-01T11:36:46.286Z,2.70
2019-04-01T11:37:46.321Z,3.30
2019-04-01T11:38:46.292Z,2.50
2019-04-01T11:39:46.258Z,2.70
2019-04-01T11:40:46.260Z,2.40
2019-04-01T11:41:46.255Z,2.90
2019-04-01T11:42:46.264Z,2.80
2019-04-01T11:43:46.215Z,2.70
2019-04-01T11:44:46.238Z,2.10
2019-04-01T11:45:46.202Z,2.50
2019-04-01T11:46:46.187Z,2.40
2019-04-01T11:47:46.144Z,2.50
2019-04-01T11:48:46.153Z,2.30
2019-04-01T11:49:46.125Z,2.60
2019-04-01T11:50:47.927Z,2.40
2019-04-01T11:51:46.147Z,2.20
2019-04-01T11:52:46.109Z,2.00
2019-04-01T11:53:46.146Z,1.70
2019-04-01T11:54:46.074Z,1.80
2019-04-01T11:55:46.061Z,1.50
2019-04-01T11:56:46.049Z,1.60
2019-04-01T11:57:46.073Z,1.70
2019-04-01T11:58:46.055Z,1.70
2019-04-01T11:59:46.015Z,1.80
2019-04-01T12:00:46.004Z,1.80
2019-04-01T12:01:47.392Z,1.90
2019-04-01T12:02:46.690Z,1.60
2019-04-01T12:03:45.996Z,1.80
2019-04-01T12:04:45.961Z,1.70
2019-04-01T12:05:45.965Z,1.90
2019-04-01T12:06:45.945Z,2.00
2019-04-01T12:07:45.940Z,2.00
2019-04-01T12:08:46.188Z,1.80
2019-04-01T12:09:45.928Z,1.80
2019-04-01T12:10:45.901Z,2.00
2019-04-01T12:11:45.897Z,1.80
2019-04-01T12:12:45.875Z,1.90
2019-04-01T12:13:45.885Z,1.80
2019-04-01T12:14:45.868Z,1.70
2019-04-01T12:15:45.846Z,1.50
2019-04-01T12:16:45.870Z,2.00
2019-04-01T12:17:45.825Z,1.80
2019-04-01T12:18:45.845Z,2.00
2019-04-01T12:19:45.921Z,2.10
2019-04-01T12:20:45.814Z,2.20
2019-04-01T12:21:45.784Z,2.50
2019-04-01T12:22:46.273Z,2.30
2019-04-01T12:23:45.774Z,2.10
2019-04-01T12:24:45.755Z,1.80
2019-04-01T12:25:45.749Z,2.40
2019-04-01T12:26:46.373Z,2.00
2019-04-01T12:27:45.726Z,2.10
2019-04-01T12:28:45.749Z,1.90
2019-04-01T12:29:48.211Z,2.00
2019-04-01T12:30:45.715Z,2.10
2019-04-01T12:31:45.694Z,1.90
2019-04-01T12:32:45.677Z,2.00
2019-04-01T12:33:45.672Z,2.10
2019-04-01T12:34:46.675Z,2.00
2019-04-01T12:35:45.625Z,2.10
2019-04-01T12:36:45.629Z,1.70
2019-04-01T12:37:46.022Z,2.00
2019-04-01T12:38:45.619Z,1.80
2019-04-01T12:39:45.597Z,1.90
2019-04-01T12:40:45.576Z,2.10
2019-04-01T12:41:45.573Z,1.90
2019-04-01T12:42:46.365Z,2.10
2019-04-01T12:43:45.572Z,2.10
2019-04-01T12:44:45.531Z,2.40
2019-04-01T12:45:45.539Z,2.60
2019-04-01T12:46:45.529Z,2.20
2019-04-01T12:47:45.505Z,2.40
2019-04-01T12:48:45.509Z,2.30
2019-04-01T12:49:45.481Z,2.40
2019-04-01T12:50:45.466Z,2.30
2019-04-01T12:51:45.460Z,2.30
2019-04-01T12:52:46.284Z,2.20
2019-04-01T12:53:45.974Z,2.30
2019-04-01T12:54:45.427Z,2.30
2019-04-01T12:55:45.420Z,2.00
2019-04-01T12:56:45.397Z,2.20
2019-04-01T12:57:48.297Z,2.10
2019-04-01T12:58:45.403Z,2.30
2019-04-01T12:59:46.004Z,2.40
2019-04-01T13:00:45.374Z,2.50
2019-04-01T13:01:45.360Z,2.10
2019-04-01T13:02:45.327Z,2.20
2019-04-01T13:03:45.356Z,2.20
2019-04-01T13:04:45.323Z,2.70
2019-04-01T13:05:45.299Z,2.30
2019-04-01T13:06:45.303Z,2.10
2019-04-01T13:07:45.280Z,1.90
2019-04-01T13:08:45.275Z,2.00
2019-04-01T13:09:45.249Z,1.90
2019-04-01T13:10:45.258Z,2.10
2019-04-01T13:11:45.222Z,2.10
2019-04-01T13:12:46.347Z,2.00
2019-04-01T13:13:48.659Z,2.30
2019-04-01T13:14:45.194Z,2.50
2019-04-01T13:15:45.193Z,2.10
2019-04-01T13:16:45.172Z,1.70
2019-04-01T13:17:45.172Z,1.80
2019-04-01T13:18:45.198Z,1.80